createdAt,value
2019-01-18T00:01:23.591Z,2.10
2019-01-18T00:03:52.990Z,1.80
2019-01-18T00:06:22.398Z,2.13
2019-01-18T00:08:51.861Z,2.20
2019-01-18T00:11:21.343Z,2.57
2019-01-18T00:13:50.749Z,2.43
2019-01-18T00:16:20.181Z,2.33
2019-01-18T00:18:49.658Z,2.20
2019-01-18T00:21:19.264Z,3.27
2019-01-18T00:23:48.677Z,3.30
2019-01-18T00:26:18.100Z,3.20
2019-01-18T00:28:47.491Z,3.30
2019-01-18T00:31:16.895Z,3.60
2019-01-18T00:33:46.376Z,3.80
2019-01-18T00:36:15.849Z,3.53
2019-01-18T00:38:45.291Z,3.80
2019-01-18T00:41:14.713Z,3.80
2019-01-18T00:43:44.109Z,3.60
2019-01-18T00:46:13.516Z,3.83
2019-01-18T00:48:42.920Z,3.93
2019-01-18T00:51:12.298Z,3.83
2019-01-18T00:53:41.730Z,3.80
2019-01-18T00:56:11.226Z,3.40
2019-01-18T00:58:40.638Z,3.03
2019-01-18T01:01:10.106Z,2.93
2019-01-18T01:03:39.510Z,3.37
2019-01-18T01:06:09.005Z,3.13
2019-01-18T01:08:38.415Z,2.93
2019-01-18T01:11:07.812Z,2.90
2019-01-18T01:13:37.254Z,3.00
2019-01-18T01:16:06.731Z,2.83
2019-01-18T01:18:36.420Z,2.53
2019-01-18T01:21:05.986Z,2.50
2019-01-18T01:23:35.386Z,2.27
2019-01-18T01:26:04.930Z,2.60
2019-01-18T01:28:34.416Z,2.60
2019-01-18T01:31:03.809Z,2.50
2019-01-18T01:33:33.223Z,2.30
2019-01-18T01:36:02.695Z,2.43
2019-01-18T01:38:32.096Z,2.43
2019-01-18T01:41:01.488Z,2.13
2019-01-18T01:43:30.980Z,2.13
2019-01-18T01:46:00.391Z,1.80
2019-01-18T01:48:29.915Z,1.73
2019-01-18T01:50:59.376Z,1.20
2019-01-18T01:53:28.816Z,1.10
2019-01-18T01:55:58.227Z,1.27
2019-01-18T01:58:27.639Z,1.07
2019-01-18T02:00:57.044Z,1.00
2019-01-18T02:03:26.593Z,1.00
2019-01-18T02:05:55.992Z,0.90
2019-01-18T02:08:25.483Z,1.20
2019-01-18T02:10:54.874Z,1.03
2019-01-18T02:13:24.303Z,1.40
2019-01-18T02:15:53.705Z,1.37
2019-01-18T02:18:23.129Z,1.00
2019-01-18T02:20:52.578Z,1.40
2019-01-18T02:23:21.979Z,1.10
2019-01-18T02:25:51.381Z,1.20
2019-01-18T02:28:20.785Z,1.00
2019-01-18T02:30:50.195Z,1.00
2019-01-18T02:33:19.594Z,1.07
2019-01-18T02:35:48.997Z,1.10
2019-01-18T02:38:18.481Z,1.10
2019-01-18T02:40:47.880Z,1.20
2019-01-18T02:43:17.288Z,1.27
2019-01-18T02:45:46.690Z,1.67
2019-01-18T02:48:16.184Z,1.30
2019-01-18T02:50:45.639Z,1.10
2019-01-18T02:53:15.150Z,1.60
2019-01-18T02:55:44.556Z,1.20
2019-01-18T02:58:13.943Z,1.20
2019-01-18T03:00:43.346Z,1.20
2019-01-18T03:03:12.755Z,1.10
2019-01-18T03:05:42.168Z,1.20
2019-01-18T03:08:11.572Z,1.50
2019-01-18T03:10:41.065Z,0.90
2019-01-18T03:13:10.474Z,0.70
2019-01-18T03:15:39.920Z,1.10
2019-01-18T03:18:09.319Z,1.00
2019-01-18T03:20:38.798Z,1.00
2019-01-18T03:23:08.485Z,0.70
2019-01-18T03:25:37.913Z,0.73
2019-01-18T03:28:07.309Z,0.80
2019-01-18T03:30:36.802Z,1.30
2019-01-18T03:33:06.357Z,0.90
2019-01-18T03:35:35.752Z,0.90
2019-01-18T03:38:05.150Z,1.20
2019-01-18T03:40:34.546Z,1.20
2019-01-18T03:43:04.221Z,1.10
2019-01-18T03:45:33.633Z,1.00
2019-01-18T03:48:03.106Z,1.10
2019-01-18T03:50:32.586Z,0.90
2019-01-18T03:53:02.025Z,1.10
2019-01-18T03:55:31.433Z,1.20
2019-01-18T03:58:00.834Z,1.20
2019-01-18T04:00:30.691Z,1.17
2019-01-18T04:03:00.096Z,1.17
2019-01-18T04:05:29.553Z,1.13
2019-01-18T04:07:58.949Z,1.57
2019-01-18T04:10:28.358Z,1.30
2019-01-18T04:12:58.638Z,1.47
2019-01-18T04:15:28.091Z,1.13
2019-01-18T04:17:57.522Z,1.33
2019-01-18T04:20:26.943Z,1.33
2019-01-18T04:22:56.349Z,1.20
2019-01-18T04:25:30.457Z,1.57
2019-01-18T04:28:00.238Z,1.07
2019-01-18T04:30:33.555Z,1.40
2019-01-18T04:33:00.881Z,1.30
2019-01-18T04:35:30.523Z,1.10
2019-01-18T04:37:59.928Z,1.03
2019-01-18T04:40:29.433Z,1.40
2019-01-18T04:42:58.923Z,1.20
2019-01-18T04:45:28.447Z,1.10
2019-01-18T04:47:57.843Z,1.10
2019-01-18T04:50:28.382Z,1.47
2019-01-18T04:52:57.937Z,1.10
2019-01-18T04:55:27.414Z,1.10
2019-01-18T04:57:56.971Z,1.00
2019-01-18T05:00:28.384Z,1.00
2019-01-18T05:02:57.967Z,1.20
2019-01-18T05:05:27.578Z,1.10
2019-01-18T05:07:57.154Z,1.07
2019-01-18T05:10:28.008Z,1.23
2019-01-18T05:12:57.847Z,1.10
2019-01-18T05:15:29.643Z,0.97
2019-01-18T05:17:59.026Z,0.90
2019-01-18T05:20:28.578Z,1.27
2019-01-18T05:22:58.067Z,0.73
2019-01-18T05:25:27.462Z,1.20
2019-01-18T05:27:56.893Z,1.10
2019-01-18T05:30:28.009Z,0.93
2019-01-18T05:32:57.530Z,1.20
2019-01-18T05:35:27.178Z,1.10
2019-01-18T05:37:56.571Z,1.07
2019-01-18T05:40:25.993Z,1.10
2019-01-18T05:42:55.401Z,1.20
2019-01-18T05:45:24.926Z,0.90
2019-01-18T05:47:54.519Z,0.97
2019-01-18T05:50:28.751Z,0.93
2019-01-18T05:52:59.995Z,0.87
2019-01-18T05:55:29.461Z,1.00
2019-01-18T05:57:58.949Z,1.43
2019-01-18T06:00:36.503Z,0.90
2019-01-18T06:03:06.341Z,1.10
2019-01-18T06:05:38.470Z,0.90
2019-01-18T06:08:08.058Z,1.17
2019-01-18T06:10:37.546Z,1.13
2019-01-18T06:13:07.022Z,1.00
2019-01-18T06:15:36.535Z,1.00
2019-01-18T06:18:06.114Z,0.80
2019-01-18T06:20:35.694Z,1.30
2019-01-18T06:23:05.545Z,1.00
2019-01-18T06:25:35.977Z,1.00
2019-01-18T06:28:05.511Z,1.00
2019-01-18T06:30:35.018Z,0.90
2019-01-18T06:33:04.416Z,1.20
2019-01-18T06:35:33.890Z,0.90
2019-01-18T06:38:03.658Z,1.33
2019-01-18T06:40:33.142Z,0.80
2019-01-18T06:43:02.625Z,0.90
2019-01-18T06:45:32.853Z,1.03
2019-01-18T06:48:02.379Z,1.50
2019-01-18T06:50:31.812Z,1.07
2019-01-18T06:53:01.383Z,1.17
2019-01-18T06:55:30.826Z,1.40
2019-01-18T06:58:00.284Z,1.20
2019-01-18T07:00:32.074Z,1.20
2019-01-18T07:03:01.707Z,1.10
2019-01-18T07:05:31.191Z,1.10
2019-01-18T07:08:00.620Z,1.13
2019-01-18T07:10:30.033Z,1.30
2019-01-18T07:12:59.907Z,1.10
2019-01-18T07:15:29.377Z,2.00
2019-01-18T07:17:58.963Z,1.00
2019-01-18T07:20:28.423Z,1.67
2019-01-18T07:22:57.865Z,1.20
2019-01-18T07:25:29.207Z,1.10
2019-01-18T07:27:58.779Z,1.30
2019-01-18T07:30:33.988Z,1.10
2019-01-18T07:33:04.236Z,1.27
2019-01-18T07:35:33.667Z,1.43
2019-01-18T07:38:03.348Z,1.33
2019-01-18T07:40:32.844Z,1.10
2019-01-18T07:43:02.327Z,1.10
2019-01-18T07:45:32.005Z,1.33
2019-01-18T07:48:01.691Z,1.33
2019-01-18T07:50:31.566Z,1.30
2019-01-18T07:53:01.141Z,1.27
2019-01-18T07:55:30.627Z,2.40
2019-01-18T07:58:00.044Z,1.30
2019-01-18T08:00:30.575Z,1.20
2019-01-18T08:03:00.064Z,1.73
2019-01-18T08:05:32.833Z,0.90
2019-01-18T08:08:03.147Z,1.10
2019-01-18T08:10:32.741Z,1.00
2019-01-18T08:13:02.156Z,1.33
2019-01-18T08:15:31.692Z,1.40
2019-01-18T08:18:01.107Z,1.03
2019-01-18T08:20:31.309Z,1.60
2019-01-18T08:23:01.826Z,1.20
2019-01-18T08:25:31.415Z,1.30
2019-01-18T08:28:01.631Z,1.10
2019-01-18T08:30:31.744Z,1.60
2019-01-18T08:33:01.168Z,1.20
2019-01-18T08:35:31.263Z,1.27
2019-01-18T08:38:00.778Z,1.37
2019-01-18T08:40:41.983Z,1.10
2019-01-18T08:43:16.370Z,1.20
2019-01-18T08:45:51.904Z,1.20
2019-01-18T08:48:21.322Z,1.07
2019-01-18T08:50:50.855Z,1.20
2019-01-18T08:53:20.267Z,1.40
2019-01-18T08:55:49.763Z,1.33
2019-01-18T08:58:19.283Z,1.20
2019-01-18T09:00:48.695Z,1.93
2019-01-18T09:03:18.239Z,1.20
2019-01-18T09:05:47.855Z,1.17
2019-01-18T09:08:17.329Z,1.10
2019-01-18T09:10:48.767Z,1.13
2019-01-18T09:13:18.471Z,1.10
2019-01-18T09:15:47.993Z,4.30
2019-01-18T09:18:17.407Z,1.10
2019-01-18T09:20:46.819Z,1.27
2019-01-18T09:23:16.448Z,1.20
2019-01-18T09:25:45.851Z,1.83
2019-01-18T09:28:15.318Z,1.57
2019-01-18T09:30:44.892Z,1.17
2019-01-18T09:33:14.440Z,1.73
2019-01-18T09:35:44.214Z,1.30
2019-01-18T09:38:17.952Z,1.60
2019-01-18T09:40:47.308Z,1.37
2019-01-18T09:43:16.752Z,1.17
2019-01-18T09:45:46.180Z,1.03
2019-01-18T09:48:15.944Z,1.60
2019-01-18T09:50:45.427Z,1.70
2019-01-18T09:53:15.018Z,1.10
2019-01-18T09:55:44.582Z,1.33
2019-01-18T09:58:14.026Z,1.50
2019-01-18T10:00:43.525Z,1.03
2019-01-18T10:03:13.026Z,1.60
2019-01-18T10:05:42.501Z,2.33
2019-01-18T10:08:12.584Z,1.30
2019-01-18T10:10:42.235Z,1.13
2019-01-18T10:13:11.681Z,1.40
2019-01-18T10:15:43.454Z,1.57
2019-01-18T10:18:13.346Z,1.40
2019-01-18T10:20:42.956Z,1.73
2019-01-18T10:23:12.504Z,1.80
2019-01-18T10:25:41.991Z,0.97
2019-01-18T10:28:11.408Z,1.20
2019-01-18T10:30:41.004Z,1.30
2019-01-18T10:33:10.492Z,1.20
2019-01-18T10:35:40.139Z,1.37
2019-01-18T10:38:09.881Z,1.20
2019-01-18T10:40:39.413Z,1.30
2019-01-18T10:43:09.051Z,2.10
2019-01-18T10:45:38.523Z,1.43
2019-01-18T10:48:08.051Z,1.10
2019-01-18T10:50:37.522Z,2.07
2019-01-18T10:53:07.119Z,2.07
2019-01-18T10:55:36.578Z,1.50
2019-01-18T10:58:06.183Z,1.90
2019-01-18T11:03:18.291Z,1.70
2019-01-18T11:05:47.877Z,2.00
2019-01-18T11:08:17.709Z,1.80
2019-01-18T11:10:47.271Z,2.00
2019-01-18T11:13:16.789Z,1.60
2019-01-18T11:15:46.261Z,1.93
2019-01-18T11:18:15.810Z,2.03
2019-01-18T11:20:58.061Z,1.93
2019-01-18T11:23:27.503Z,1.93
2019-01-18T11:25:56.994Z,1.73
2019-01-18T11:28:26.576Z,1.67
2019-01-18T11:30:56.062Z,1.90
2019-01-18T11:33:25.525Z,1.70
2019-01-18T11:35:54.976Z,2.00
2019-01-18T11:38:24.532Z,1.77
2019-01-18T11:40:54.152Z,2.10
2019-01-18T11:43:23.796Z,1.90
2019-01-18T11:45:53.367Z,1.90
2019-01-18T11:48:22.864Z,2.10
2019-01-18T11:50:52.388Z,1.97
2019-01-18T11:53:22.056Z,1.80
2019-01-18T11:55:51.674Z,1.27
2019-01-18T11:58:21.238Z,1.43
2019-01-18T12:00:50.686Z,1.90
2019-01-18T12:03:20.330Z,1.63
2019-01-18T12:05:49.932Z,1.67
2019-01-18T12:08:19.564Z,1.67
2019-01-18T12:10:49.108Z,1.40
2019-01-18T12:13:18.596Z,1.57
2019-01-18T12:15:48.185Z,1.33
2019-01-18T12:18:17.675Z,1.33
2019-01-18T12:20:47.228Z,1.40
2019-01-18T12:23:16.893Z,1.70
2019-01-18T12:25:46.337Z,1.40
2019-01-18T12:28:15.847Z,1.90
2019-01-18T12:30:45.457Z,1.30
2019-01-18T12:33:15.066Z,1.40
2019-01-18T12:35:44.701Z,1.60
2019-01-18T12:38:14.256Z,2.10
2019-01-18T12:40:43.873Z,1.40
2019-01-18T12:43:13.570Z,1.53
2019-01-18T12:45:43.169Z,1.20
2019-01-18T12:48:12.843Z,1.00
2019-01-18T12:50:42.843Z,1.27
2019-01-18T12:53:12.643Z,1.63
2019-01-18T12:55:42.257Z,1.07
2019-01-18T12:58:11.863Z,1.33
2019-01-18T13:00:41.389Z,1.53
2019-01-18T13:03:10.942Z,1.40
2019-01-18T13:05:48.551Z,1.40
2019-01-18T13:08:18.205Z,1.20
2019-01-18T13:10:47.853Z,1.20
2019-01-18T13:13:17.482Z,1.30
2019-01-18T13:15:55.296Z,1.37
2019-01-18T13:18:24.806Z,2.00
2019-01-18T13:20:54.366Z,1.60
2019-01-18T13:23:23.944Z,1.60
2019-01-18T13:25:53.542Z,1.97
2019-01-18T13:28:23.220Z,1.80
2019-01-18T13:30:52.788Z,1.43
2019-01-18T13:33:22.534Z,1.67
2019-01-18T13:35:52.134Z,2.30
2019-01-18T13:38:21.767Z,1.63
2019-01-18T13:40:51.418Z,1.20
2019-01-18T13:43:21.123Z,1.30
2019-01-18T13:45:50.686Z,1.30
2019-01-18T13:48:20.226Z,1.67
2019-01-18T13:50:49.832Z,1.30
2019-01-18T13:53:19.398Z,1.43
2019-01-18T13:55:48.940Z,1.43
2019-01-18T13:58:18.532Z,1.07
2019-01-18T14:00:48.128Z,1.10
2019-01-18T14:03:17.696Z,1.50
2019-01-18T14:05:47.319Z,1.17
2019-01-18T14:08:16.813Z,1.80
2019-01-18T14:10:46.537Z,1.30
2019-01-18T14:13:16.324Z,1.40
2019-01-18T14:15:45.975Z,1.13
2019-01-18T14:18:15.415Z,1.37
2019-01-18T14:20:44.945Z,1.13
2019-01-18T14:23:14.605Z,1.40
2019-01-18T14:25:50.193Z,1.43
2019-01-18T14:28:19.755Z,1.90
2019-01-18T14:30:49.433Z,1.57
2019-01-18T14:33:19.031Z,2.03
2019-01-18T14:35:48.597Z,1.30
2019-01-18T14:38:18.195Z,1.70
2019-01-18T14:40:47.810Z,1.63
2019-01-18T14:43:17.301Z,1.40
2019-01-18T14:45:46.836Z,1.40
2019-01-18T14:48:16.322Z,1.53
2019-01-18T14:50:45.967Z,1.57
2019-01-18T14:53:15.513Z,1.63
2019-01-18T14:55:45.178Z,1.70
2019-01-18T14:58:14.847Z,1.30
2019-01-18T15:00:44.411Z,1.13
2019-01-18T15:03:15.592Z,1.33
2019-01-18T15:05:45.156Z,2.83
2019-01-18T15:08:14.634Z,1.87
2019-01-18T15:10:44.293Z,1.90
2019-01-18T15:13:16.696Z,2.03
2019-01-18T15:15:46.358Z,1.70
2019-01-18T15:18:16.802Z,2.37
2019-01-18T15:20:46.379Z,1.67
2019-01-18T15:23:16.182Z,1.70
2019-01-18T15:25:45.806Z,2.40
2019-01-18T15:28:15.402Z,1.83
2019-01-18T15:30:45.060Z,1.60
2019-01-18T15:33:14.820Z,1.60
2019-01-18T15:35:44.403Z,1.47
2019-01-18T15:38:15.230Z,1.70
2019-01-18T15:40:47.924Z,1.80
2019-01-18T15:43:20.452Z,1.50
2019-01-18T15:45:50.046Z,1.63
2019-01-18T15:48:19.600Z,1.80
2019-01-18T15:50:50.234Z,1.80
2019-01-18T15:53:20.038Z,1.53
2019-01-18T15:55:49.658Z,1.63
2019-01-18T15:58:19.226Z,1.90
2019-01-18T16:00:48.717Z,1.73
2019-01-18T16:03:18.377Z,1.60
2019-01-18T16:05:47.928Z,1.70
2019-01-18T16:08:17.647Z,1.57
2019-01-18T16:10:47.194Z,1.70
2019-01-18T16:13:16.859Z,1.77
2019-01-18T16:16:27.778Z,1.60
2019-01-18T16:18:57.950Z,2.10
2019-01-18T16:21:27.575Z,1.90
2019-01-18T16:23:57.166Z,1.70
2019-01-18T16:26:26.647Z,1.70
2019-01-18T16:28:56.317Z,2.00
2019-01-18T16:31:26.735Z,1.77
2019-01-18T16:33:56.451Z,1.90
2019-01-18T16:36:26.057Z,1.90
2019-01-18T16:38:55.509Z,1.90
2019-01-18T16:41:25.634Z,1.90
2019-01-18T16:43:55.247Z,2.10
2019-01-18T16:46:24.875Z,1.90
2019-01-18T16:48:54.482Z,1.70
2019-01-18T16:51:24.051Z,1.83
2019-01-18T16:53:53.573Z,1.80
2019-01-18T16:56:23.051Z,1.90
2019-01-18T16:58:52.600Z,1.90
2019-01-18T17:01:22.227Z,1.80
2019-01-18T17:03:51.733Z,1.87
2019-01-18T17:06:21.186Z,2.27
2019-01-18T17:08:50.768Z,2.17
2019-01-18T17:11:20.422Z,1.90
2019-01-18T17:13:50.902Z,1.80
2019-01-18T17:16:23.570Z,1.73
2019-01-18T17:18:53.490Z,1.77
2019-01-18T17:21:23.072Z,1.93
2019-01-18T17:23:52.708Z,2.63
2019-01-18T17:26:22.244Z,1.80
2019-01-18T17:28:51.770Z,1.80
2019-01-18T17:31:21.379Z,2.13
2019-01-18T17:33:50.931Z,2.10
2019-01-18T17:36:37.712Z,1.97
2019-01-18T17:39:51.690Z,1.83
2019-01-18T17:43:10.819Z,1.80
2019-01-18T17:46:20.172Z,1.97
2019-01-18T17:49:22.391Z,1.80
2019-01-18T17:52:20.732Z,1.53
2019-01-18T17:55:12.344Z,2.17
2019-01-18T17:58:20.340Z,2.30
2019-01-18T18:01:36.194Z,2.63
2019-01-18T18:04:36.681Z,2.60
2019-01-18T18:07:32.237Z,2.50
2019-01-18T18:10:12.353Z,2.60
2019-01-18T18:13:29.359Z,2.90
2019-01-18T18:16:51.265Z,2.67
2019-01-18T18:19:35.837Z,2.07
2019-01-18T18:22:40.932Z,2.63
2019-01-18T18:25:41.157Z,2.73
2019-01-18T18:29:03.074Z,2.73
2019-01-18T18:32:25.864Z,3.33
2019-01-18T18:35:21.656Z,3.93
2019-01-18T18:38:25.234Z,2.70
2019-01-18T18:41:19.618Z,3.00
2019-01-18T18:44:15.354Z,2.90
2019-01-18T18:47:07.112Z,3.13
2019-01-18T18:50:19.265Z,2.67
2019-01-18T18:53:30.566Z,2.80
2019-01-18T18:56:22.273Z,2.63
2019-01-18T18:59:36.260Z,2.50
2019-01-18T19:03:05.480Z,2.20
2019-01-18T19:06:01.270Z,2.53
2019-01-18T19:09:17.807Z,2.67
2019-01-18T19:12:43.902Z,3.53
2019-01-18T19:15:41.557Z,2.80
2019-01-18T19:18:40.626Z,3.40
2019-01-18T19:21:54.074Z,2.97
2019-01-18T19:24:43.164Z,3.43
2019-01-18T19:27:50.155Z,3.03
2019-01-18T19:31:00.143Z,2.93
2019-01-18T19:34:05.011Z,3.00
2019-01-18T19:37:00.399Z,2.80
2019-01-18T19:39:48.359Z,3.43
2019-01-18T19:43:00.009Z,3.13
2019-01-18T19:45:43.299Z,2.80
2019-01-18T19:48:45.913Z,3.07
2019-01-18T19:51:54.581Z,3.13
2019-01-18T19:54:39.252Z,3.50
2019-01-18T19:57:31.635Z,3.33
2019-01-18T20:00:34.212Z,2.90
2019-01-18T20:03:43.242Z,3.03
2019-01-18T20:06:54.716Z,3.37
2019-01-18T20:09:46.897Z,3.40
2019-01-18T20:12:45.258Z,3.57
2019-01-18T20:15:43.846Z,4.17
2019-01-18T20:18:54.398Z,3.33
2019-01-18T20:21:52.912Z,3.67
2019-01-18T20:25:14.767Z,4.00
2019-01-18T20:28:06.267Z,3.90
2019-01-18T20:30:59.062Z,4.17
2019-01-18T20:34:03.690Z,4.03
2019-01-18T20:36:57.521Z,3.80
2019-01-18T20:40:10.678Z,3.67
2019-01-18T20:43:10.016Z,3.90
2019-01-18T20:49:24.378Z,4.10
2019-01-18T20:52:40.805Z,3.50
2019-01-18T20:55:34.142Z,4.10
2019-01-18T20:58:34.150Z,4.40
2019-01-18T21:01:19.635Z,4.00
2019-01-18T21:04:17.999Z,4.20
2019-01-18T21:07:15.701Z,4.47
2019-01-18T21:10:26.095Z,4.60
2019-01-18T21:13:32.674Z,4.30
2019-01-18T21:16:18.015Z,4.50
2019-01-18T21:19:01.453Z,4.70
2019-01-18T21:21:54.014Z,4.70
2019-01-18T21:24:47.625Z,4.67
2019-01-18T21:27:33.734Z,4.90
2019-01-18T21:30:38.080Z,4.73
2019-01-18T21:33:44.654Z,4.90
2019-01-18T21:36:42.326Z,4.90
2019-01-18T21:39:53.099Z,4.63
2019-01-18T21:43:00.414Z,4.83
2019-01-18T21:46:19.348Z,5.30
2019-01-18T21:49:10.193Z,5.00
2019-01-18T21:52:02.620Z,5.33
2019-01-18T21:55:13.527Z,5.40
2019-01-18T21:58:17.361Z,5.90
2019-01-18T22:01:13.522Z,5.53
2019-01-18T22:04:11.928Z,5.43
2019-01-18T22:07:09.796Z,4.97
2019-01-18T22:10:05.619Z,5.07
2019-01-18T22:13:13.147Z,4.77
2019-01-18T22:16:29.258Z,5.40
2019-01-18T22:19:52.581Z,5.57
2019-01-18T22:22:58.799Z,4.80
2019-01-18T22:25:51.157Z,5.37
2019-01-18T22:28:31.392Z,5.60
2019-01-18T22:31:22.827Z,5.20
2019-01-18T22:34:31.426Z,4.83
2019-01-18T22:37:20.678Z,5.43
2019-01-18T22:40:32.420Z,4.60
2019-01-18T22:43:43.324Z,4.17
2019-01-18T22:46:44.758Z,4.13
2019-01-18T22:49:58.224Z,4.00
2019-01-18T22:52:44.669Z,3.87
2019-01-18T22:55:42.996Z,3.97
2019-01-18T22:58:56.456Z,4.33
2019-01-18T23:01:58.902Z,3.80
2019-01-18T23:05:09.700Z,3.37
2019-01-18T23:08:20.783Z,3.80
2019-01-18T23:11:23.458Z,3.60
2019-01-18T23:14:24.723Z,3.50
2019-01-18T23:17:27.730Z,3.27
2019-01-18T23:21:09.079Z,3.10
2019-01-18T23:24:00.437Z,3.53
2019-01-18T23:27:01.927Z,3.20
2019-01-18T23:29:52.609Z,3.23
2019-01-18T23:32:40.429Z,3.17
2019-01-18T23:35:42.279Z,3.07
2019-01-18T23:38:49.175Z,3.83
2019-01-18T23:41:41.775Z,3.67
2019-01-18T23:44:45.003Z,3.60
2019-01-18T23:47:48.554Z,3.47
2019-01-18T23:50:57.939Z,3.80
2019-01-18T23:53:55.425Z,3.77
2019-01-18T23:56:52.103Z,3.37
2019-01-18T23:59:47.189Z,3.83
